• Join FlightAware (Why Join?)
  • Login
  • US Flag 
07:03AM EDT


 

Airport Tracker/Info


-or-


 

Live Flight TrackerFlight Track Log ✈ JZA7927 ✈ 18-May-2013 ✈ KBWI - CYYZ

Flight Track Log - Related Links

Times and Time Zones

All times are in EDT time to prevent confusion due to time zone crossing. See the JZA7927 flight status page for this flight to view local times or setup timezone preferences in your user account.

Time Position Orientation Groundspeed Altitude Reporting Facility
EDT Latitude Longitude Course Direction KTS MPH feet Rate Location/Type
06:21AM 39.1667 -76.6333 North 115 132 1,300  Level Potomac TRACON
06:22AM 39.2000 -76.6167 21° North 145 167 2,300 1,080 Climbing Potomac TRACON
06:23AM 39.2333 -76.5833 38° Northeast 152 175 3,500 1,080 Climbing Potomac TRACON
06:23AM 39.2667 -76.5667 21° North 163 188 4,400 900 Climbing Potomac TRACON
06:24AM 39.4296 -76.6518 21° North  Level FlightAware Approximate
06:25AM 39.4915 -76.6167 North  Level FlightAware Approximate
06:25AM 39.3617 -76.5794 354° North 186 214 5,800  Level New York Center
06:26AM 39.5599 -76.6167 North  Level FlightAware Approximate
06:26AM 39.4156 -76.5839 356° North 197 227 7,100  Level New York Center
06:27AM 39.4614 -76.5875 357° North 181 208 8,000 1,140 Climbing New York Center
06:28AM 39.5092 -76.5914 356° North 170 196 9,400 1,260 Climbing New York Center
06:29AM 39.5506 -76.5950 356° North 155 178 10,600 1,080 Climbing New York Center
06:30AM 39.5922 -76.5983 356° North 150 173 11,600 660 Climbing New York Center
06:31AM 39.6381 -76.5994 359° North 150 173 12,000 180 Climbing New York Center
06:32AM 39.6981 -76.6044 356° North 198 228 12,000  Level New York Center
06:33AM 39.7625 -76.6097 356° North 216 249 12,000  Level New York Center
06:34AM 39.8183 -76.6603 325° Northwest 229 264 12,000  Level New York Center
06:35AM 39.8744 -76.7083 327° Northwest 241 277 12,000  Level New York Center
06:36AM 39.9303 -76.7564 327° Northwest 241 277 12,000  Level New York Center
06:37AM 39.9911 -76.7942 335° Northwest 241 277 12,000  Level New York Center
06:38AM 40.0536 -76.8322 335° Northwest 241 277 12,000  Level New York Center
06:39AM 40.1142 -76.8700 334° Northwest 241 277 12,000  Level New York Center
06:40AM 40.1708 -76.9050 335° Northwest 241 277 12,000  Level New York Center
06:41AM 40.2397 -76.9436 337° Northwest 241 277 12,000  Level New York Center
06:42AM 40.2922 -76.9756 335° Northwest 241 277 12,000  Level New York Center
06:43AM 40.3589 -77.0169 335° Northwest 241 277 12,000  Level New York Center
06:44AM 40.4133 -77.0517 334° Northwest 241 277 12,000  Level New York Center
06:45AM 40.4819 -77.0936 335° Northwest 241 277 12,000  Level New York Center
06:46AM 40.5364 -77.1258 336° Northwest 241 277 12,000  Level New York Center
06:47AM 40.6008 -77.1675 334° Northwest 241 277 12,000  Level New York Center
06:48AM 40.6556 -77.1997 336° Northwest 234 269 12,000  Level New York Center
06:49AM 40.7161 -77.2356 336° Northwest 234 269 12,100  Climbing New York Center
06:50AM 40.7767 -77.2714 336° Northwest 234 269 12,100  Level New York Center
06:51AM 40.8350 -77.3100 333° Northwest 234 269 12,100 -60 Level New York Center
06:52AM 40.9014 -77.3519 334° Northwest 234 269 12,000  Descending New York Center
06:53AM 40.9619 -77.3853 337° Northwest 234 269 12,100  Climbing New York Center
06:54AM 41.0222 -77.4269 332° Northwest 234 269 12,100  Level New York Center
06:55AM 41.0828 -77.4633 336° Northwest 234 269 12,100  Level New York Center
06:56AM 41.1411 -77.4994 335° Northwest 234 269 12,100  Level New York Center
06:57AM 41.1994 -77.5383 333° Northwest 234 269 12,100  Level New York Center
06:58AM 41.2578 -77.5717 337° Northwest 234 269 12,100  Level New York Center
06:59AM 41.3161 -77.6081 335° Northwest 234 269 12,100 -120 Level New York Center
07:01AM 41.4525 -77.6933 335° Northwest 233 268 11,900 -120 Descending Cleveland Center
07:02AM 41.5097 -77.7297 335° Northwest 233 268 11,900  Level Cleveland Center
07:03AM 41.5689 -77.7689 334° Northwest 233 268 11,900  Level Cleveland Center
07:04AM 41.6283 -77.8050 336° Northwest 233 268 11,900  Level Cleveland Center
07:05AM 41.6875 -77.8442 334° Northwest 233 268 11,900  Level Cleveland Center
07:06AM 41.7447 -77.8808 334° Northwest 233 268 11,900  Level Cleveland Center
07:07AM 41.8039 -77.9172 335° Northwest 233 268 11,900  Level Cleveland Center
07:08AM 41.8633 -77.9567 334° Northwest 233 268 11,900  Level Cleveland Center
07:09AM 41.9267 -77.9931 337° Northwest 240 276 12,000  Climbing Cleveland Center
07:10AM 41.9839 -78.0328 333° Northwest 240 276 12,000  Level Cleveland Center
07:11AM 42.0453 -78.0722 334° Northwest 235 270 12,000  Level Cleveland Center
07:12AM 42.1022 -78.1092 334° Northwest 235 270 12,000  Level Cleveland Center
07:13AM 42.1636 -78.1461 336° Northwest 235 270 12,000  Level Cleveland Center
07:14AM 42.2206 -78.1831 334° Northwest 235 270 12,000  Level Cleveland Center
07:15AM 42.2797 -78.2203 335° Northwest 235 270 12,000  Level Cleveland Center
07:16AM 42.3389 -78.2600 334° Northwest 235 270 12,000  Level Cleveland Center
07:17AM 42.3981 -78.2972 335° Northwest 235 270 12,000  Level Cleveland Center
07:18AM 42.4569 -78.3344 335° Northwest 235 270 12,000  Level Cleveland Center
07:19AM 42.5142 -78.3747 333° Northwest 235 270 12,000  Level Cleveland Center
07:20AM 42.5711 -78.4122 334° Northwest 235 270 12,000  Level Cleveland Center
07:21AM 42.6261 -78.4611 327° Northwest 230 265 12,000  Level Cleveland Center
07:22AM 42.6711 -78.5217 315° West 225 259 12,000  Level Cleveland Center
07:23AM 42.7181 -78.5794 318° Northwest 225 259 12,000  Level Cleveland Center
07:24AM 42.7500 -78.6267 313° West 225 259 12,000  Level Cleveland Center
07:25AM 42.8011 -78.6931 316° Northwest 225 259 12,000  Level Cleveland Center
07:26AM 42.8500 -78.7539 318° Northwest 225 259 12,000  Level Cleveland Center
07:27AM 42.8947 -78.8119 316° Northwest 225 259 12,000  Level Cleveland Center
07:29AM 42.9833 -78.9333 315° West 230 265 12,000  Level Toronto Center
07:30AM 43.0333 -78.9667 334° Northwest 230 265 12,000  Level Toronto Center